sensor_id;sensor_type;location;lat;lon;timestamp;P1;durP1;ratioP1;P2;durP2;ratioP2
4214;SDS011;2121;48.062;7.850;2023-02-28T00:01:03;3.53;;;2.90;;
4214;SDS011;2121;48.062;7.850;2023-02-28T00:03:28;3.33;;;2.93;;
4214;SDS011;2121;48.062;7.850;2023-02-28T00:05:54;4.70;;;2.70;;
4214;SDS011;2121;48.062;7.850;2023-02-28T00:08:20;5.43;;;2.90;;
4214;SDS011;2121;48.062;7.850;2023-02-28T00:10:45;3.37;;;3.10;;
4214;SDS011;2121;48.062;7.850;2023-02-28T00:13:11;2.50;;;2.30;;
4214;SDS011;2121;48.062;7.850;2023-02-28T00:15:38;3.03;;;2.83;;
4214;SDS011;2121;48.062;7.850;2023-02-28T00:18:03;6.50;;;3.13;;
4214;SDS011;2121;48.062;7.850;2023-02-28T00:20:29;2.80;;;2.60;;
4214;SDS011;2121;48.062;7.850;2023-02-28T00:22:55;5.13;;;3.17;;
4214;SDS011;2121;48.062;7.850;2023-02-28T00:25:22;3.43;;;3.13;;
4214;SDS011;2121;48.062;7.850;2023-02-28T00:27:49;3.10;;;2.90;;
4214;SDS011;2121;48.062;7.850;2023-02-28T00:30:17;4.07;;;3.50;;
4214;SDS011;2121;48.062;7.850;2023-02-28T00:32:46;6.23;;;3.03;;
4214;SDS011;2121;48.062;7.850;2023-02-28T00:35:12;2.57;;;2.40;;
4214;SDS011;2121;48.062;7.850;2023-02-28T00:37:38;4.10;;;3.00;;
4214;SDS011;2121;48.062;7.850;2023-02-28T00:40:04;3.27;;;2.90;;
4214;SDS011;2121;48.062;7.850;2023-02-28T00:42:31;2.70;;;2.57;;
4214;SDS011;2121;48.062;7.850;2023-02-28T00:44:58;3.13;;;2.57;;
4214;SDS011;2121;48.062;7.850;2023-02-28T00:47:25;3.17;;;2.97;;
4214;SDS011;2121;48.062;7.850;2023-02-28T00:49:50;4.63;;;4.13;;
4214;SDS011;2121;48.062;7.850;2023-02-28T00:52:16;5.13;;;3.23;;
4214;SDS011;2121;48.062;7.850;2023-02-28T00:54:42;3.73;;;3.40;;
4214;SDS011;2121;48.062;7.850;2023-02-28T00:57:07;3.93;;;3.17;;
4214;SDS011;2121;48.062;7.850;2023-02-28T00:59:33;2.70;;;2.60;;
4214;SDS011;2121;48.062;7.850;2023-02-28T01:01:59;3.97;;;3.57;;
4214;SDS011;2121;48.062;7.850;2023-02-28T01:04:25;3.00;;;2.77;;
4214;SDS011;2121;48.062;7.850;2023-02-28T01:06:51;4.40;;;3.10;;
4214;SDS011;2121;48.062;7.850;2023-02-28T01:09:16;3.37;;;3.17;;
4214;SDS011;2121;48.062;7.850;2023-02-28T01:11:43;2.83;;;2.63;;
4214;SDS011;2121;48.062;7.850;2023-02-28T01:14:13;4.87;;;3.33;;
4214;SDS011;2121;48.062;7.850;2023-02-28T01:16:42;6.07;;;3.33;;
4214;SDS011;2121;48.062;7.850;2023-02-28T01:19:08;8.97;;;3.07;;
4214;SDS011;2121;48.062;7.850;2023-02-28T01:21:34;4.27;;;2.90;;
4214;SDS011;2121;48.062;7.850;2023-02-28T01:24:01;7.90;;;2.83;;
4214;SDS011;2121;48.062;7.850;2023-02-28T01:26:28;2.93;;;2.67;;
4214;SDS011;2121;48.062;7.850;2023-02-28T01:28:54;3.57;;;3.23;;
4214;SDS011;2121;48.062;7.850;2023-02-28T01:31:20;5.43;;;3.20;;
4214;SDS011;2121;48.062;7.850;2023-02-28T01:33:47;3.30;;;3.10;;
4214;SDS011;2121;48.062;7.850;2023-02-28T01:36:15;2.60;;;2.40;;
4214;SDS011;2121;48.062;7.850;2023-02-28T01:38:44;3.40;;;2.83;;
4214;SDS011;2121;48.062;7.850;2023-02-28T01:41:24;4.20;;;2.70;;
4214;SDS011;2121;48.062;7.850;2023-02-28T01:43:56;3.00;;;2.47;;
4214;SDS011;2121;48.062;7.850;2023-02-28T01:46:23;3.90;;;3.00;;
4214;SDS011;2121;48.062;7.850;2023-02-28T01:48:51;3.83;;;3.40;;
4214;SDS011;2121;48.062;7.850;2023-02-28T01:54:10;4.07;;;3.67;;
4214;SDS011;2121;48.062;7.850;2023-02-28T01:56:43;3.80;;;3.50;;
4214;SDS011;2121;48.062;7.850;2023-02-28T01:59:16;3.40;;;3.17;;
4214;SDS011;2121;48.062;7.850;2023-02-28T02:01:52;3.90;;;3.60;;
4214;SDS011;2121;48.062;7.850;2023-02-28T02:04:19;4.50;;;3.40;;
4214;SDS011;2121;48.062;7.850;2023-02-28T02:06:48;5.87;;;2.83;;
4214;SDS011;2121;48.062;7.850;2023-02-28T02:09:14;5.27;;;3.83;;
4214;SDS011;2121;48.062;7.850;2023-02-28T02:11:40;3.03;;;2.83;;
4214;SDS011;2121;48.062;7.850;2023-02-28T02:17:38;3.30;;;3.00;;
4214;SDS011;2121;48.062;7.850;2023-02-28T02:23:20;3.60;;;3.40;;
4214;SDS011;2121;48.062;7.850;2023-02-28T02:32:35;3.47;;;3.17;;
4214;SDS011;2121;48.062;7.850;2023-02-28T02:35:29;3.80;;;3.10;;
4214;SDS011;2121;48.062;7.850;2023-02-28T02:44:02;3.30;;;3.00;;
4214;SDS011;2121;48.062;7.850;2023-02-28T02:46:43;2.80;;;2.60;;
4214;SDS011;2121;48.062;7.850;2023-02-28T02:49:15;3.40;;;2.93;;
4214;SDS011;2121;48.062;7.850;2023-02-28T02:51:49;3.20;;;2.90;;
4214;SDS011;2121;48.062;7.850;2023-02-28T02:54:17;4.73;;;3.40;;
4214;SDS011;2121;48.062;7.850;2023-02-28T02:56:48;2.80;;;2.63;;
4214;SDS011;2121;48.062;7.850;2023-02-28T02:59:18;3.17;;;2.87;;
4214;SDS011;2121;48.062;7.850;2023-02-28T03:01:50;3.37;;;3.17;;
4214;SDS011;2121;48.062;7.850;2023-02-28T03:04:20;3.07;;;2.77;;
4214;SDS011;2121;48.062;7.850;2023-02-28T03:06:50;4.23;;;3.33;;
4214;SDS011;2121;48.062;7.850;2023-02-28T03:09:23;2.60;;;2.40;;
4214;SDS011;2121;48.062;7.850;2023-02-28T03:11:51;3.70;;;3.33;;
4214;SDS011;2121;48.062;7.850;2023-02-28T03:20:37;4.40;;;3.87;;
4214;SDS011;2121;48.062;7.850;2023-02-28T03:23:16;3.57;;;3.30;;
4214;SDS011;2121;48.062;7.850;2023-02-28T03:25:59;6.73;;;2.57;;
4214;SDS011;2121;48.062;7.850;2023-02-28T03:31:37;3.20;;;2.90;;
4214;SDS011;2121;48.062;7.850;2023-02-28T03:37:29;3.23;;;3.03;;
4214;SDS011;2121;48.062;7.850;2023-02-28T03:40:05;4.30;;;3.90;;
4214;SDS011;2121;48.062;7.850;2023-02-28T03:42:39;3.20;;;3.00;;
4214;SDS011;2121;48.062;7.850;2023-02-28T03:45:16;3.30;;;3.10;;
4214;SDS011;2121;48.062;7.850;2023-02-28T03:47:52;3.37;;;3.07;;
4214;SDS011;2121;48.062;7.850;2023-02-28T03:50:41;8.53;;;2.70;;
4214;SDS011;2121;48.062;7.850;2023-02-28T03:56:03;3.80;;;3.30;;
4214;SDS011;2121;48.062;7.850;2023-02-28T04:01:32;3.33;;;2.90;;
4214;SDS011;2121;48.062;7.850;2023-02-28T04:04:01;3.43;;;3.13;;
4214;SDS011;2121;48.062;7.850;2023-02-28T04:06:27;4.73;;;3.47;;
4214;SDS011;2121;48.062;7.850;2023-02-28T04:08:58;5.07;;;3.30;;
4214;SDS011;2121;48.062;7.850;2023-02-28T04:14:03;3.73;;;3.40;;
4214;SDS011;2121;48.062;7.850;2023-02-28T04:16:30;3.17;;;2.93;;
4214;SDS011;2121;48.062;7.850;2023-02-28T04:18:57;3.63;;;3.33;;
4214;SDS011;2121;48.062;7.850;2023-02-28T04:21:37;4.17;;;3.47;;
4214;SDS011;2121;48.062;7.850;2023-02-28T04:24:14;4.30;;;3.30;;
4214;SDS011;2121;48.062;7.850;2023-02-28T04:26:48;5.30;;;2.97;;
4214;SDS011;2121;48.062;7.850;2023-02-28T04:29:23;4.73;;;3.10;;
4214;SDS011;2121;48.062;7.850;2023-02-28T04:31:52;4.67;;;3.10;;
4214;SDS011;2121;48.062;7.850;2023-02-28T04:34:20;7.00;;;3.03;;
4214;SDS011;2121;48.062;7.850;2023-02-28T04:36:47;3.63;;;3.33;;
4214;SDS011;2121;48.062;7.850;2023-02-28T04:39:18;5.70;;;3.50;;
4214;SDS011;2121;48.062;7.850;2023-02-28T04:41:44;3.00;;;2.80;;
4214;SDS011;2121;48.062;7.850;2023-02-28T04:44:11;3.47;;;3.17;;
4214;SDS011;2121;48.062;7.850;2023-02-28T04:46:37;3.87;;;3.57;;
4214;SDS011;2121;48.062;7.850;2023-02-28T04:49:03;3.37;;;3.17;;
4214;SDS011;2121;48.062;7.850;2023-02-28T04:51:28;4.13;;;2.77;;
4214;SDS011;2121;48.062;7.850;2023-02-28T04:53:54;4.73;;;3.60;;
4214;SDS011;2121;48.062;7.850;2023-02-28T04:56:20;2.93;;;2.73;;
4214;SDS011;2121;48.062;7.850;2023-02-28T04:58:47;3.63;;;3.20;;
4214;SDS011;2121;48.062;7.850;2023-02-28T05:01:26;6.97;;;3.80;;
4214;SDS011;2121;48.062;7.850;2023-02-28T05:03:56;2.50;;;2.40;;
4214;SDS011;2121;48.062;7.850;2023-02-28T05:06:25;3.60;;;3.27;;
4214;SDS011;2121;48.062;7.850;2023-02-28T05:08:55;3.50;;;3.20;;
4214;SDS011;2121;48.062;7.850;2023-02-28T05:11:31;3.30;;;3.03;;
4214;SDS011;2121;48.062;7.850;2023-02-28T05:14:03;4.20;;;3.80;;
4214;SDS011;2121;48.062;7.850;2023-02-28T05:16:36;3.37;;;3.13;;
4214;SDS011;2121;48.062;7.850;2023-02-28T05:19:02;3.40;;;3.10;;
4214;SDS011;2121;48.062;7.850;2023-02-28T05:21:29;2.60;;;2.50;;
4214;SDS011;2121;48.062;7.850;2023-02-28T05:24:01;3.30;;;3.10;;
4214;SDS011;2121;48.062;7.850;2023-02-28T05:26:36;3.30;;;3.00;;
4214;SDS011;2121;48.062;7.850;2023-02-28T05:29:04;3.53;;;3.27;;
4214;SDS011;2121;48.062;7.850;2023-02-28T05:31:30;3.50;;;3.23;;
4214;SDS011;2121;48.062;7.850;2023-02-28T05:33:56;4.10;;;3.77;;
4214;SDS011;2121;48.062;7.850;2023-02-28T05:36:21;3.93;;;3.63;;
4214;SDS011;2121;48.062;7.850;2023-02-28T05:38:48;6.30;;;3.20;;
4214;SDS011;2121;48.062;7.850;2023-02-28T05:41:15;3.77;;;3.47;;
4214;SDS011;2121;48.062;7.850;2023-02-28T05:43:41;3.27;;;2.97;;
4214;SDS011;2121;48.062;7.850;2023-02-28T05:46:08;3.70;;;3.40;;
4214;SDS011;2121;48.062;7.850;2023-02-28T05:48:37;3.77;;;3.40;;
4214;SDS011;2121;48.062;7.850;2023-02-28T05:51:04;3.57;;;3.27;;
4214;SDS011;2121;48.062;7.850;2023-02-28T05:53:32;5.93;;;3.90;;
4214;SDS011;2121;48.062;7.850;2023-02-28T05:55:58;7.03;;;5.10;;
4214;SDS011;2121;48.062;7.850;2023-02-28T05:58:24;4.40;;;4.00;;
4214;SDS011;2121;48.062;7.850;2023-02-28T06:00:54;5.70;;;4.63;;
4214;SDS011;2121;48.062;7.850;2023-02-28T06:03:19;5.00;;;4.40;;
4214;SDS011;2121;48.062;7.850;2023-02-28T06:05:45;4.83;;;3.87;;
4214;SDS011;2121;48.062;7.850;2023-02-28T06:08:11;3.63;;;3.33;;
4214;SDS011;2121;48.062;7.850;2023-02-28T06:10:37;5.53;;;4.40;;
4214;SDS011;2121;48.062;7.850;2023-02-28T06:13:03;3.70;;;3.40;;
4214;SDS011;2121;48.062;7.850;2023-02-28T06:15:29;6.17;;;4.40;;
4214;SDS011;2121;48.062;7.850;2023-02-28T06:17:55;6.50;;;4.30;;
4214;SDS011;2121;48.062;7.850;2023-02-28T06:20:22;5.90;;;4.33;;
4214;SDS011;2121;48.062;7.850;2023-02-28T06:22:49;5.07;;;3.57;;
4214;SDS011;2121;48.062;7.850;2023-02-28T06:25:19;4.60;;;4.20;;
4214;SDS011;2121;48.062;7.850;2023-02-28T06:27:45;4.93;;;3.70;;
4214;SDS011;2121;48.062;7.850;2023-02-28T06:30:11;7.53;;;4.83;;
4214;SDS011;2121;48.062;7.850;2023-02-28T06:32:37;4.77;;;3.97;;
4214;SDS011;2121;48.062;7.850;2023-02-28T06:35:03;5.13;;;4.30;;
4214;SDS011;2121;48.062;7.850;2023-02-28T06:37:30;5.50;;;4.27;;
4214;SDS011;2121;48.062;7.850;2023-02-28T06:39:57;5.90;;;5.30;;
4214;SDS011;2121;48.062;7.850;2023-02-28T06:42:23;5.80;;;4.23;;
4214;SDS011;2121;48.062;7.850;2023-02-28T06:44:53;4.53;;;4.07;;
4214;SDS011;2121;48.062;7.850;2023-02-28T06:47:22;5.10;;;4.60;;
4214;SDS011;2121;48.062;7.850;2023-02-28T06:49:48;5.00;;;4.50;;
4214;SDS011;2121;48.062;7.850;2023-02-28T06:52:15;5.20;;;4.70;;
4214;SDS011;2121;48.062;7.850;2023-02-28T06:54:41;5.10;;;4.30;;
4214;SDS011;2121;48.062;7.850;2023-02-28T06:57:07;4.50;;;4.13;;
4214;SDS011;2121;48.062;7.850;2023-02-28T06:59:33;9.80;;;4.17;;
4214;SDS011;2121;48.062;7.850;2023-02-28T07:02:00;6.90;;;3.63;;
4214;SDS011;2121;48.062;7.850;2023-02-28T07:04:27;5.40;;;4.57;;
4214;SDS011;2121;48.062;7.850;2023-02-28T07:06:54;4.30;;;3.90;;
4214;SDS011;2121;48.062;7.850;2023-02-28T07:09:21;4.50;;;4.10;;
4214;SDS011;2121;48.062;7.850;2023-02-28T07:11:48;4.77;;;3.80;;
4214;SDS011;2121;48.062;7.850;2023-02-28T07:14:13;5.30;;;4.20;;
4214;SDS011;2121;48.062;7.850;2023-02-28T07:16:39;4.43;;;3.87;;
4214;SDS011;2121;48.062;7.850;2023-02-28T07:19:05;10.20;;;5.47;;
4214;SDS011;2121;48.062;7.850;2023-02-28T07:21:31;8.80;;;5.60;;
4214;SDS011;2121;48.062;7.850;2023-02-28T07:23:56;5.60;;;4.07;;
4214;SDS011;2121;48.062;7.850;2023-02-28T07:26:22;4.00;;;3.60;;
4214;SDS011;2121;48.062;7.850;2023-02-28T07:28:48;5.07;;;4.60;;
4214;SDS011;2121;48.062;7.850;2023-02-28T07:31:15;7.57;;;6.03;;
4214;SDS011;2121;48.062;7.850;2023-02-28T07:33:42;8.00;;;4.57;;
4214;SDS011;2121;48.062;7.850;2023-02-28T07:36:15;5.57;;;5.07;;
4214;SDS011;2121;48.062;7.850;2023-02-28T07:38:44;10.90;;;7.00;;
4214;SDS011;2121;48.062;7.850;2023-02-28T07:41:13;4.73;;;3.93;;
4214;SDS011;2121;48.062;7.850;2023-02-28T07:43:44;6.90;;;3.50;;
4214;SDS011;2121;48.062;7.850;2023-02-28T07:46:12;5.23;;;4.50;;
4214;SDS011;2121;48.062;7.850;2023-02-28T07:48:40;5.50;;;4.50;;
4214;SDS011;2121;48.062;7.850;2023-02-28T07:51:06;5.10;;;3.97;;
4214;SDS011;2121;48.062;7.850;2023-02-28T07:53:31;6.33;;;4.73;;
4214;SDS011;2121;48.062;7.850;2023-02-28T07:55:57;8.07;;;4.93;;
4214;SDS011;2121;48.062;7.850;2023-02-28T07:58:25;5.57;;;4.43;;
4214;SDS011;2121;48.062;7.850;2023-02-28T08:00:52;5.40;;;4.90;;
4214;SDS011;2121;48.062;7.850;2023-02-28T08:03:19;4.73;;;4.10;;
4214;SDS011;2121;48.062;7.850;2023-02-28T08:05:46;6.07;;;4.83;;
4214;SDS011;2121;48.062;7.850;2023-02-28T08:08:13;4.97;;;4.57;;
4214;SDS011;2121;48.062;7.850;2023-02-28T08:10:40;4.10;;;3.67;;
4214;SDS011;2121;48.062;7.850;2023-02-28T08:13:06;6.80;;;4.63;;
4214;SDS011;2121;48.062;7.850;2023-02-28T08:15:32;6.13;;;4.87;;
4214;SDS011;2121;48.062;7.850;2023-02-28T08:17:58;6.17;;;4.53;;
4214;SDS011;2121;48.062;7.850;2023-02-28T08:20:24;4.97;;;4.07;;
4214;SDS011;2121;48.062;7.850;2023-02-28T08:22:51;6.57;;;5.30;;
4214;SDS011;2121;48.062;7.850;2023-02-28T08:25:17;6.40;;;5.00;;
4214;SDS011;2121;48.062;7.850;2023-02-28T08:27:43;4.43;;;4.03;;
4214;SDS011;2121;48.062;7.850;2023-02-28T08:30:10;6.87;;;4.70;;
4214;SDS011;2121;48.062;7.850;2023-02-28T08:32:38;5.93;;;4.60;;
4214;SDS011;2121;48.062;7.850;2023-02-28T08:35:04;6.23;;;4.40;;
4214;SDS011;2121;48.062;7.850;2023-02-28T08:37:31;9.47;;;5.50;;
4214;SDS011;2121;48.062;7.850;2023-02-28T08:39:57;12.77;;;4.23;;
4214;SDS011;2121;48.062;7.850;2023-02-28T08:42:23;4.70;;;4.20;;
4214;SDS011;2121;48.062;7.850;2023-02-28T08:44:49;4.83;;;4.40;;
4214;SDS011;2121;48.062;7.850;2023-02-28T08:47:15;7.43;;;4.50;;
4214;SDS011;2121;48.062;7.850;2023-02-28T08:49:41;6.50;;;5.07;;
4214;SDS011;2121;48.062;7.850;2023-02-28T08:52:06;10.23;;;5.57;;
4214;SDS011;2121;48.062;7.850;2023-02-28T08:54:32;6.87;;;5.17;;
4214;SDS011;2121;48.062;7.850;2023-02-28T08:56:59;7.90;;;4.93;;
4214;SDS011;2121;48.062;7.850;2023-02-28T08:59:25;4.77;;;4.40;;
4214;SDS011;2121;48.062;7.850;2023-02-28T09:01:51;5.60;;;5.03;;
4214;SDS011;2121;48.062;7.850;2023-02-28T09:04:16;5.30;;;4.80;;
4214;SDS011;2121;48.062;7.850;2023-02-28T09:06:42;5.57;;;5.00;;
4214;SDS011;2121;48.062;7.850;2023-02-28T09:09:09;7.20;;;4.40;;
4214;SDS011;2121;48.062;7.850;2023-02-28T09:11:35;6.97;;;4.90;;
4214;SDS011;2121;48.062;7.850;2023-02-28T09:14:02;8.70;;;5.33;;
4214;SDS011;2121;48.062;7.850;2023-02-28T09:16:28;4.93;;;4.40;;
4214;SDS011;2121;48.062;7.850;2023-02-28T09:18:56;7.00;;;5.67;;
4214;SDS011;2121;48.062;7.850;2023-02-28T09:21:23;6.20;;;5.57;;
4214;SDS011;2121;48.062;7.850;2023-02-28T09:23:49;7.47;;;5.50;;
4214;SDS011;2121;48.062;7.850;2023-02-28T09:26:26;8.70;;;7.23;;
4214;SDS011;2121;48.062;7.850;2023-02-28T09:28:53;7.13;;;6.20;;
4214;SDS011;2121;48.062;7.850;2023-02-28T09:31:23;5.90;;;5.30;;
4214;SDS011;2121;48.062;7.850;2023-02-28T09:33:53;5.57;;;5.07;;
4214;SDS011;2121;48.062;7.850;2023-02-28T09:36:21;6.93;;;5.30;;
4214;SDS011;2121;48.062;7.850;2023-02-28T09:38:48;5.43;;;4.70;;
4214;SDS011;2121;48.062;7.850;2023-02-28T09:41:23;5.90;;;5.30;;
4214;SDS011;2121;48.062;7.850;2023-02-28T09:43:56;6.70;;;5.80;;
4214;SDS011;2121;48.062;7.850;2023-02-28T09:46:35;7.67;;;5.80;;
4214;SDS011;2121;48.062;7.850;2023-02-28T09:49:06;6.70;;;5.70;;
4214;SDS011;2121;48.062;7.850;2023-02-28T09:51:50;6.77;;;5.80;;
4214;SDS011;2121;48.062;7.850;2023-02-28T09:54:24;6.10;;;5.53;;
4214;SDS011;2121;48.062;7.850;2023-02-28T09:56:59;9.73;;;6.83;;
4214;SDS011;2121;48.062;7.850;2023-02-28T10:05:09;8.10;;;6.57;;
4214;SDS011;2121;48.062;7.850;2023-02-28T10:13:31;7.03;;;5.60;;
4214;SDS011;2121;48.062;7.850;2023-02-28T10:16:03;6.60;;;5.60;;
4214;SDS011;2121;48.062;7.850;2023-02-28T10:18:52;7.47;;;6.77;;
4214;SDS011;2121;48.062;7.850;2023-02-28T10:21:35;7.47;;;5.80;;
4214;SDS011;2121;48.062;7.850;2023-02-28T10:27:00;10.83;;;5.60;;
4214;SDS011;2121;48.062;7.850;2023-02-28T10:29:34;8.50;;;5.83;;
4214;SDS011;2121;48.062;7.850;2023-02-28T10:32:01;6.80;;;5.40;;
4214;SDS011;2121;48.062;7.850;2023-02-28T10:34:28;8.17;;;5.83;;
4214;SDS011;2121;48.062;7.850;2023-02-28T10:36:54;12.03;;;5.63;;
4214;SDS011;2121;48.062;7.850;2023-02-28T10:42:26;8.03;;;6.20;;
4214;SDS011;2121;48.062;7.850;2023-02-28T10:45:16;7.40;;;5.43;;
4214;SDS011;2121;48.062;7.850;2023-02-28T10:47:55;6.57;;;5.20;;
4214;SDS011;2121;48.062;7.850;2023-02-28T11:01:38;6.67;;;5.70;;
4214;SDS011;2121;48.062;7.850;2023-02-28T11:06:57;10.53;;;5.33;;
4214;SDS011;2121;48.062;7.850;2023-02-28T11:12:05;14.87;;;6.00;;
4214;SDS011;2121;48.062;7.850;2023-02-28T11:14:48;7.53;;;6.53;;
4214;SDS011;2121;48.062;7.850;2023-02-28T11:17:21;7.10;;;5.37;;
4214;SDS011;2121;48.062;7.850;2023-02-28T11:19:55;18.10;;;6.97;;
4214;SDS011;2121;48.062;7.850;2023-02-28T11:22:28;8.07;;;6.60;;
4214;SDS011;2121;48.062;7.850;2023-02-28T11:25:02;7.83;;;6.00;;
4214;SDS011;2121;48.062;7.850;2023-02-28T11:30:37;8.07;;;5.17;;
4214;SDS011;2121;48.062;7.850;2023-02-28T11:33:26;7.37;;;6.60;;
4214;SDS011;2121;48.062;7.850;2023-02-28T11:36:08;7.90;;;6.47;;
4214;SDS011;2121;48.062;7.850;2023-02-28T11:38:39;6.37;;;5.77;;
4214;SDS011;2121;48.062;7.850;2023-02-28T11:41:10;11.73;;;7.50;;
4214;SDS011;2121;48.062;7.850;2023-02-28T11:44:10;11.63;;;7.30;;
4214;SDS011;2121;48.062;7.850;2023-02-28T11:49:46;7.43;;;6.50;;
4214;SDS011;2121;48.062;7.850;2023-02-28T11:55:26;8.87;;;6.17;;
4214;SDS011;2121;48.062;7.850;2023-02-28T12:07:03;7.50;;;6.10;;
4214;SDS011;2121;48.062;7.850;2023-02-28T12:15:56;13.70;;;7.20;;
4214;SDS011;2121;48.062;7.850;2023-02-28T12:24:26;7.77;;;6.50;;
4214;SDS011;2121;48.062;7.850;2023-02-28T12:27:19;10.97;;;7.67;;
4214;SDS011;2121;48.062;7.850;2023-02-28T12:30:02;8.37;;;6.97;;
4214;SDS011;2121;48.062;7.850;2023-02-28T12:32:43;9.30;;;7.00;;
4214;SDS011;2121;48.062;7.850;2023-02-28T12:35:14;9.20;;;7.73;;
4214;SDS011;2121;48.062;7.850;2023-02-28T12:37:50;7.13;;;6.47;;
4214;SDS011;2121;48.062;7.850;2023-02-28T12:40:26;8.07;;;7.27;;
4214;SDS011;2121;48.062;7.850;2023-02-28T12:43:20;9.80;;;6.50;;
4214;SDS011;2121;48.062;7.850;2023-02-28T12:45:56;17.43;;;8.27;;
4214;SDS011;2121;48.062;7.850;2023-02-28T12:48:31;7.83;;;7.00;;
4214;SDS011;2121;48.062;7.850;2023-02-28T12:51:12;8.27;;;7.07;;
4214;SDS011;2121;48.062;7.850;2023-02-28T12:56:35;12.37;;;9.97;;
4214;SDS011;2121;48.062;7.850;2023-02-28T12:59:18;9.17;;;8.17;;
4214;SDS011;2121;48.062;7.850;2023-02-28T13:02:02;9.80;;;7.33;;
4214;SDS011;2121;48.062;7.850;2023-02-28T13:05:07;12.40;;;9.83;;
4214;SDS011;2121;48.062;7.850;2023-02-28T13:10:24;9.17;;;6.97;;
4214;SDS011;2121;48.062;7.850;2023-02-28T13:13:03;6.83;;;6.10;;
4214;SDS011;2121;48.062;7.850;2023-02-28T13:15:29;8.10;;;7.13;;
4214;SDS011;2121;48.062;7.850;2023-02-28T13:17:56;8.33;;;6.70;;
4214;SDS011;2121;48.062;7.850;2023-02-28T13:20:37;10.27;;;6.57;;
4214;SDS011;2121;48.062;7.850;2023-02-28T13:34:39;8.90;;;6.10;;
4214;SDS011;2121;48.062;7.850;2023-02-28T13:39:56;8.13;;;7.33;;
4214;SDS011;2121;48.062;7.850;2023-02-28T13:42:52;8.80;;;6.57;;
4214;SDS011;2121;48.062;7.850;2023-02-28T13:45:27;8.63;;;6.90;;
4214;SDS011;2121;48.062;7.850;2023-02-28T13:48:03;9.57;;;6.90;;
4214;SDS011;2121;48.062;7.850;2023-02-28T13:50:41;9.23;;;7.90;;
4214;SDS011;2121;48.062;7.850;2023-02-28T13:59:33;10.07;;;8.93;;
4214;SDS011;2121;48.062;7.850;2023-02-28T14:02:14;10.10;;;7.57;;
4214;SDS011;2121;48.062;7.850;2023-02-28T14:05:13;7.77;;;7.07;;
4214;SDS011;2121;48.062;7.850;2023-02-28T14:07:50;8.90;;;6.53;;
4214;SDS011;2121;48.062;7.850;2023-02-28T14:10:43;9.93;;;7.40;;
4214;SDS011;2121;48.062;7.850;2023-02-28T14:16:16;7.10;;;6.50;;
4214;SDS011;2121;48.062;7.850;2023-02-28T14:18:57;8.80;;;6.80;;
4214;SDS011;2121;48.062;7.850;2023-02-28T14:27:17;8.07;;;6.97;;
4214;SDS011;2121;48.062;7.850;2023-02-28T14:33:34;7.40;;;6.60;;
4214;SDS011;2121;48.062;7.850;2023-02-28T14:36:39;8.63;;;7.80;;
4214;SDS011;2121;48.062;7.850;2023-02-28T14:39:15;10.93;;;8.30;;
4214;SDS011;2121;48.062;7.850;2023-02-28T14:41:45;11.73;;;7.77;;
4214;SDS011;2121;48.062;7.850;2023-02-28T14:44:16;9.80;;;8.67;;
4214;SDS011;2121;48.062;7.850;2023-02-28T14:47:00;9.27;;;6.97;;
4214;SDS011;2121;48.062;7.850;2023-02-28T14:49:37;9.20;;;7.70;;
4214;SDS011;2121;48.062;7.850;2023-02-28T14:52:23;9.83;;;7.70;;
4214;SDS011;2121;48.062;7.850;2023-02-28T14:54:57;9.70;;;7.97;;
4214;SDS011;2121;48.062;7.850;2023-02-28T14:57:40;12.40;;;7.60;;
4214;SDS011;2121;48.062;7.850;2023-02-28T15:00:24;9.80;;;7.87;;
4214;SDS011;2121;48.062;7.850;2023-02-28T15:02:56;12.43;;;7.80;;
4214;SDS011;2121;48.062;7.850;2023-02-28T15:08:05;8.67;;;7.77;;
4214;SDS011;2121;48.062;7.850;2023-02-28T15:10:38;17.13;;;10.10;;
4214;SDS011;2121;48.062;7.850;2023-02-28T15:13:11;11.90;;;9.33;;
4214;SDS011;2121;48.062;7.850;2023-02-28T15:15:41;10.17;;;8.00;;
4214;SDS011;2121;48.062;7.850;2023-02-28T15:21:21;9.77;;;7.43;;
4214;SDS011;2121;48.062;7.850;2023-02-28T15:23:50;16.47;;;9.30;;
4214;SDS011;2121;48.062;7.850;2023-02-28T15:26:48;14.50;;;11.67;;
4214;SDS011;2121;48.062;7.850;2023-02-28T15:29:21;15.90;;;9.63;;
4214;SDS011;2121;48.062;7.850;2023-02-28T15:31:57;10.70;;;8.17;;
4214;SDS011;2121;48.062;7.850;2023-02-28T15:34:40;9.47;;;8.17;;
4214;SDS011;2121;48.062;7.850;2023-02-28T15:39:55;8.53;;;6.50;;
4214;SDS011;2121;48.062;7.850;2023-02-28T15:42:29;9.80;;;7.80;;
4214;SDS011;2121;48.062;7.850;2023-02-28T15:44:56;7.90;;;7.10;;
4214;SDS011;2121;48.062;7.850;2023-02-28T15:47:23;10.20;;;8.50;;
4214;SDS011;2121;48.062;7.850;2023-02-28T15:49:56;8.87;;;7.50;;
4214;SDS011;2121;48.062;7.850;2023-02-28T15:55:06;11.70;;;8.67;;
4214;SDS011;2121;48.062;7.850;2023-02-28T15:57:51;10.97;;;8.60;;
4214;SDS011;2121;48.062;7.850;2023-02-28T16:00:22;11.30;;;9.67;;
4214;SDS011;2121;48.062;7.850;2023-02-28T16:02:50;9.07;;;7.80;;
4214;SDS011;2121;48.062;7.850;2023-02-28T16:07:56;10.60;;;9.03;;
4214;SDS011;2121;48.062;7.850;2023-02-28T16:10:54;10.60;;;8.63;;
4214;SDS011;2121;48.062;7.850;2023-02-28T16:13:20;13.90;;;9.97;;
4214;SDS011;2121;48.062;7.850;2023-02-28T16:15:46;10.57;;;8.43;;
4214;SDS011;2121;48.062;7.850;2023-02-28T16:18:14;11.50;;;8.57;;
4214;SDS011;2121;48.062;7.850;2023-02-28T16:20:39;11.00;;;8.23;;
4214;SDS011;2121;48.062;7.850;2023-02-28T16:23:05;9.77;;;8.83;;
4214;SDS011;2121;48.062;7.850;2023-02-28T16:25:35;11.60;;;8.57;;
4214;SDS011;2121;48.062;7.850;2023-02-28T16:28:04;14.80;;;8.77;;
4214;SDS011;2121;48.062;7.850;2023-02-28T16:30:40;10.90;;;8.07;;
4214;SDS011;2121;48.062;7.850;2023-02-28T16:33:07;8.30;;;7.03;;
4214;SDS011;2121;48.062;7.850;2023-02-28T16:35:33;9.70;;;7.83;;
4214;SDS011;2121;48.062;7.850;2023-02-28T16:37:58;8.83;;;7.90;;
4214;SDS011;2121;48.062;7.850;2023-02-28T16:40:25;11.23;;;8.70;;
4214;SDS011;2121;48.062;7.850;2023-02-28T16:42:53;11.80;;;8.60;;
4214;SDS011;2121;48.062;7.850;2023-02-28T16:45:25;10.07;;;8.60;;
4214;SDS011;2121;48.062;7.850;2023-02-28T16:47:53;10.70;;;7.33;;
4214;SDS011;2121;48.062;7.850;2023-02-28T16:52:48;12.10;;;8.97;;
4214;SDS011;2121;48.062;7.850;2023-02-28T16:55:14;13.23;;;10.37;;
4214;SDS011;2121;48.062;7.850;2023-02-28T16:57:40;9.50;;;8.50;;
4214;SDS011;2121;48.062;7.850;2023-02-28T17:00:07;10.70;;;9.60;;
4214;SDS011;2121;48.062;7.850;2023-02-28T17:02:37;16.53;;;12.33;;
4214;SDS011;2121;48.062;7.850;2023-02-28T17:05:03;12.80;;;8.70;;
4214;SDS011;2121;48.062;7.850;2023-02-28T17:07:30;10.30;;;9.20;;
4214;SDS011;2121;48.062;7.850;2023-02-28T17:09:55;13.83;;;9.67;;
4214;SDS011;2121;48.062;7.850;2023-02-28T17:12:21;11.00;;;8.10;;
4214;SDS011;2121;48.062;7.850;2023-02-28T17:14:47;10.60;;;9.23;;
4214;SDS011;2121;48.062;7.850;2023-02-28T17:17:17;10.80;;;8.70;;
4214;SDS011;2121;48.062;7.850;2023-02-28T17:19:45;13.40;;;8.23;;
4214;SDS011;2121;48.062;7.850;2023-02-28T17:22:11;8.87;;;7.70;;
4214;SDS011;2121;48.062;7.850;2023-02-28T17:24:38;11.83;;;7.57;;
4214;SDS011;2121;48.062;7.850;2023-02-28T17:27:04;34.87;;;17.90;;
4214;SDS011;2121;48.062;7.850;2023-02-28T17:29:30;16.03;;;11.70;;
4214;SDS011;2121;48.062;7.850;2023-02-28T17:31:56;17.13;;;11.37;;
4214;SDS011;2121;48.062;7.850;2023-02-28T17:34:21;17.97;;;12.17;;
4214;SDS011;2121;48.062;7.850;2023-02-28T17:36:48;27.63;;;14.10;;
4214;SDS011;2121;48.062;7.850;2023-02-28T17:39:15;21.97;;;13.63;;
4214;SDS011;2121;48.062;7.850;2023-02-28T17:41:52;33.60;;;17.77;;
4214;SDS011;2121;48.062;7.850;2023-02-28T17:44:20;24.10;;;13.90;;
4214;SDS011;2121;48.062;7.850;2023-02-28T17:46:47;21.10;;;14.43;;
4214;SDS011;2121;48.062;7.850;2023-02-28T17:49:14;35.53;;;17.60;;
4214;SDS011;2121;48.062;7.850;2023-02-28T17:51:41;17.40;;;11.73;;
4214;SDS011;2121;48.062;7.850;2023-02-28T17:54:07;23.33;;;12.77;;
4214;SDS011;2121;48.062;7.850;2023-02-28T17:56:33;17.47;;;11.07;;
4214;SDS011;2121;48.062;7.850;2023-02-28T17:58:58;14.07;;;10.60;;
4214;SDS011;2121;48.062;7.850;2023-02-28T18:01:25;14.47;;;10.77;;
4214;SDS011;2121;48.062;7.850;2023-02-28T18:03:51;22.77;;;14.13;;
4214;SDS011;2121;48.062;7.850;2023-02-28T18:06:35;37.93;;;20.90;;
4214;SDS011;2121;48.062;7.850;2023-02-28T18:09:15;34.07;;;18.50;;
4214;SDS011;2121;48.062;7.850;2023-02-28T18:11:43;33.90;;;18.47;;
4214;SDS011;2121;48.062;7.850;2023-02-28T18:14:15;23.83;;;14.47;;
4214;SDS011;2121;48.062;7.850;2023-02-28T18:16:43;34.80;;;17.53;;